Portada
METAR-TAF:

METAR-TAF

Aeroports :

Farmingdale, Nova York, Estats Units d'Amèrica

latitud: 40-44-03N, longitud: 073-25-01W, altitud: 24 m

Observació

L'informe es va fer fa 25 minuts, a les 06:53 UTC
Vent 15 kt del Oest amb ràfegues de 21 kt
Temperatura 0°C
Humitat 40%
Pressió 1010 hPa
Visibilitat: 16.1 km
Núvols disperses a una alçada de 6000 ft

METAR: KFRG 280653Z AUTO 27015G21KT 10SM SCT060 00/M12 A2983 RMK AO2 SLP102 T00001117

Hora: 02:18 (07:18 UTC)


TAF: manca

Observacions i pronòstics meteorològics de més de 4000 aeroports (METAR i TAF).

Les estacions disponibles són els punts grocs i vermells al mapa.

Posi el ratolí al punt desitjat per veure el nom de l'estació.

Feu clic per veure les observacions i els pronòstics meteorològics.

Per canviar el mapa: feu clic els botons verds amb una creu de color negre per apropar; al botó verd amb un guió per allunyar la imatge; o en les fletxes verdes per a mapes adjacents.


METAR-TAF: